createdAt,value
2022-10-28T00:01:29.115Z,97644.77
2022-10-28T00:04:01.503Z,97644.67
2022-10-28T00:06:33.876Z,97646.36
2022-10-28T00:09:05.607Z,97645.45
2022-10-28T00:11:36.623Z,97640.36
2022-10-28T00:14:08.079Z,97638.21
2022-10-28T00:16:38.238Z,97634.06
2022-10-28T00:19:08.660Z,97636.63
2022-10-28T00:21:39.348Z,97635.89
2022-10-28T00:24:09.617Z,97635.83
2022-10-28T00:26:42.396Z,97632.63
2022-10-28T00:29:14.119Z,97635.13
2022-10-28T00:31:43.570Z,97634.20
2022-10-28T00:34:18.518Z,97628.27
2022-10-28T00:36:47.970Z,97629.16
2022-10-28T00:39:19.526Z,97626.09
2022-10-28T00:41:57.090Z,97625.98
2022-10-28T00:45:00.711Z,97624.02
2022-10-28T00:47:52.746Z,97622.61
2022-10-28T00:50:40.929Z,97618.89
2022-10-28T00:53:26.268Z,97614.17
2022-10-28T00:55:56.590Z,97614.16
2022-10-28T00:58:26.894Z,97611.42
2022-10-28T01:00:56.112Z,97610.33
2022-10-28T01:03:24.393Z,97613.33
2022-10-28T01:05:53.503Z,97614.87
2022-10-28T01:08:21.785Z,97615.33
2022-10-28T01:10:59.002Z,97610.42
2022-10-28T01:13:39.429Z,97609.91
2022-10-28T01:16:16.534Z,97611.98
2022-10-28T01:19:28.489Z,97608.52
2022-10-28T01:22:12.064Z,97612.50
2022-10-28T01:25:14.688Z,97609.95
2022-10-28T01:27:54.907Z,97608.80
2022-10-28T01:30:29.511Z,97605.89
2022-10-28T01:33:10.277Z,97607.80
2022-10-28T01:35:52.724Z,97605.13
2022-10-28T01:38:36.302Z,97605.17
2022-10-28T01:41:07.544Z,97607.38
2022-10-28T01:43:42.117Z,97607.48
2022-10-28T01:46:36.682Z,97608.23
2022-10-28T01:49:14.108Z,97608.41
2022-10-28T01:51:46.958Z,97602.44
2022-10-28T01:54:19.961Z,97604.04
2022-10-28T01:56:49.663Z,97602.11
2022-10-28T01:59:22.396Z,97601.18
2022-10-28T02:01:51.191Z,97601.58
2022-10-28T02:04:19.553Z,97603.64
2022-10-28T02:06:55.001Z,97606.02
2022-10-28T02:09:47.840Z,97608.95
2022-10-28T02:12:21.624Z,97603.56
2022-10-28T02:15:27.439Z,97603.79
2022-10-28T02:17:56.808Z,97602.67
2022-10-28T02:20:31.186Z,97600.50
2022-10-28T02:23:10.835Z,97604.67
2022-10-28T02:25:46.903Z,97606.84
2022-10-28T02:28:40.875Z,97604.73
2022-10-28T02:31:34.658Z,97600.27
2022-10-28T02:34:29.052Z,97597.75
2022-10-28T02:37:02.664Z,97599.89
2022-10-28T02:39:37.262Z,97600.70
2022-10-28T02:42:25.819Z,97600.85
2022-10-28T02:45:05.222Z,97596.03
2022-10-28T02:47:37.970Z,97593.98
2022-10-28T02:50:14.012Z,97596.88
2022-10-28T02:52:44.738Z,97597.09
2022-10-28T02:55:13.046Z,97600.23
2022-10-28T02:57:45.088Z,97599.34
2022-10-28T03:00:17.779Z,97597.61
2022-10-28T03:02:46.891Z,97594.48
2022-10-28T03:05:15.265Z,97593.06
2022-10-28T03:07:43.671Z,97590.48
2022-10-28T03:10:11.997Z,97594.19
2022-10-28T03:12:40.252Z,97595.84
2022-10-28T03:15:09.046Z,97593.05
2022-10-28T03:17:37.296Z,97596.88
2022-10-28T03:20:06.412Z,97599.61
2022-10-28T03:22:34.714Z,97604.29
2022-10-28T03:25:03.030Z,97604.89
2022-10-28T03:27:31.374Z,97603.95
2022-10-28T03:29:59.616Z,97604.00
2022-10-28T03:32:27.979Z,97603.77
2022-10-28T03:34:56.240Z,97605.42
2022-10-28T03:37:25.017Z,97603.52
2022-10-28T03:39:53.496Z,97599.94
2022-10-28T03:42:21.806Z,97594.88
2022-10-28T03:44:50.057Z,97593.27
2022-10-28T03:47:18.270Z,97595.02
2022-10-28T03:49:46.512Z,97589.19
2022-10-28T03:52:14.750Z,97589.52
2022-10-28T03:54:43.036Z,97588.34
2022-10-28T03:57:11.312Z,97588.29
2022-10-28T03:59:39.563Z,97586.98
2022-10-28T04:02:07.870Z,97590.61
2022-10-28T04:04:36.953Z,97594.10
2022-10-28T04:07:05.200Z,97589.98
2022-10-28T04:09:33.751Z,97592.09
2022-10-28T04:12:02.051Z,97592.90
2022-10-28T04:14:30.343Z,97593.31
2022-10-28T04:16:58.991Z,97597.73
2022-10-28T04:19:27.264Z,97597.48
2022-10-28T04:21:55.518Z,97595.89
2022-10-28T04:24:23.852Z,97595.13
2022-10-28T04:26:52.177Z,97595.55
2022-10-28T04:29:20.492Z,97597.35
2022-10-28T04:31:51.417Z,97598.67
2022-10-28T04:34:20.755Z,97601.11
2022-10-28T04:36:48.983Z,97598.91
2022-10-28T04:39:17.387Z,97598.95
2022-10-28T04:41:45.702Z,97597.23
2022-10-28T04:44:14.636Z,97595.23
2022-10-28T04:46:42.950Z,97590.79
2022-10-28T04:49:11.536Z,97588.65
2022-10-28T04:51:39.862Z,97588.84
2022-10-28T04:54:08.254Z,97593.42
2022-10-28T04:56:36.480Z,97591.09
2022-10-28T04:59:05.038Z,97590.96
2022-10-28T05:01:33.473Z,97588.03
2022-10-28T05:04:02.066Z,97592.58
2022-10-28T05:06:30.372Z,97598.52
2022-10-28T05:08:58.624Z,97601.55
2022-10-28T05:11:26.980Z,97600.20
2022-10-28T05:13:55.207Z,97599.95
2022-10-28T05:16:23.549Z,97600.10
2022-10-28T05:18:51.885Z,97600.15
2022-10-28T05:21:20.244Z,97601.55
2022-10-28T05:23:48.498Z,97606.33
2022-10-28T05:26:16.829Z,97607.33
2022-10-28T05:28:49.710Z,97609.92
2022-10-28T05:31:18.682Z,97610.13
2022-10-28T05:33:46.987Z,97611.89
2022-10-28T05:36:15.372Z,97613.59
2022-10-28T05:38:45.638Z,97616.86
2022-10-28T05:41:13.908Z,97608.48
2022-10-28T05:43:42.241Z,97610.04
2022-10-28T05:46:10.621Z,97613.83
2022-10-28T05:48:38.925Z,97616.02
2022-10-28T05:51:07.250Z,97612.04
2022-10-28T05:53:35.615Z,97617.29
2022-10-28T05:56:04.065Z,97625.85
2022-10-28T05:58:32.825Z,97629.59
2022-10-28T06:01:01.101Z,97627.83
2022-10-28T06:03:31.199Z,97625.80
2022-10-28T06:06:00.054Z,97630.73
2022-10-28T06:08:28.849Z,97633.66
2022-10-28T06:10:55.611Z,97630.60
2022-10-28T06:13:23.938Z,97632.66
2022-10-28T06:15:54.587Z,97632.66
2022-10-28T06:18:23.730Z,97635.98
2022-10-28T06:20:53.709Z,97635.18
2022-10-28T06:23:23.847Z,97635.89
2022-10-28T06:26:01.270Z,97635.03
2022-10-28T06:28:30.805Z,97637.75
2022-10-28T06:31:03.887Z,97638.02
2022-10-28T06:33:32.634Z,97640.61
2022-10-28T06:36:00.962Z,97640.27
2022-10-28T06:38:30.179Z,97638.27
2022-10-28T06:40:58.602Z,97638.52
2022-10-28T06:43:27.155Z,97640.58
2022-10-28T06:45:59.362Z,97643.98
2022-10-28T06:48:29.231Z,97641.48
2022-10-28T06:50:58.606Z,97645.70
2022-10-28T06:53:27.173Z,97651.08
2022-10-28T06:55:57.218Z,97650.52
2022-10-28T06:58:26.447Z,97648.35
2022-10-28T07:00:56.883Z,97652.10
2022-10-28T07:03:23.917Z,97650.66
2022-10-28T07:05:55.445Z,97648.83
2022-10-28T07:08:23.738Z,97650.63
2022-10-28T07:10:59.994Z,97651.31
2022-10-28T07:13:29.160Z,97648.81
2022-10-28T07:16:00.824Z,97648.76
2022-10-28T07:18:29.819Z,97647.20
2022-10-28T07:21:00.214Z,97648.12
2022-10-28T07:23:29.356Z,97649.10
2022-10-28T07:25:57.708Z,97647.91
2022-10-28T07:28:27.178Z,97648.86
2022-10-28T07:30:56.282Z,97647.02
2022-10-28T07:33:24.849Z,97644.89
2022-10-28T07:35:53.182Z,97641.59
2022-10-28T07:38:21.599Z,97641.69
2022-10-28T07:40:49.842Z,97644.35
2022-10-28T07:43:18.109Z,97644.85
2022-10-28T07:45:46.379Z,97643.88
2022-10-28T07:48:15.119Z,97645.99
2022-10-28T07:50:43.411Z,97642.58
2022-10-28T07:53:11.674Z,97639.58
2022-10-28T07:55:39.992Z,97640.67
2022-10-28T07:58:08.453Z,97638.27
2022-10-28T08:00:36.826Z,97635.15
2022-10-28T08:03:05.164Z,97636.45
2022-10-28T08:05:33.472Z,97628.98
2022-10-28T08:08:01.749Z,97629.05
2022-10-28T08:10:30.095Z,97632.77
2022-10-28T08:12:59.216Z,97633.98
2022-10-28T08:15:29.138Z,97631.72
2022-10-28T08:17:57.597Z,97631.98
2022-10-28T08:20:26.027Z,97626.21
2022-10-28T08:22:54.627Z,97631.55
2022-10-28T08:25:23.170Z,97631.86
2022-10-28T08:27:51.448Z,97628.23
2022-10-28T08:30:19.693Z,97625.69
2022-10-28T08:32:47.967Z,97628.59
2022-10-28T08:35:16.215Z,97631.88
2022-10-28T08:37:51.509Z,97631.30
2022-10-28T08:40:29.971Z,97629.63
2022-10-28T08:43:34.934Z,97630.30
2022-10-28T08:46:27.030Z,97632.72
2022-10-28T08:48:55.665Z,97632.02
2022-10-28T08:51:49.446Z,97629.17
2022-10-28T08:54:24.770Z,97630.70
2022-10-28T08:56:55.210Z,97635.45
2022-10-28T08:59:32.628Z,97635.29
2022-10-28T09:02:13.440Z,97635.69
2022-10-28T09:04:47.050Z,97637.39
2022-10-28T09:07:21.780Z,97637.16
2022-10-28T09:09:53.099Z,97636.35
2022-10-28T09:12:27.704Z,97632.69
2022-10-28T09:15:27.440Z,97629.27
2022-10-28T09:18:01.813Z,97628.67
2022-10-28T09:20:53.304Z,97627.66
2022-10-28T09:23:44.514Z,97626.98
2022-10-28T09:26:12.763Z,97627.36
2022-10-28T09:29:17.213Z,97626.54
2022-10-28T09:32:01.495Z,97630.98
2022-10-28T09:34:58.697Z,97632.49
2022-10-28T09:38:01.381Z,97629.81
2022-10-28T09:40:36.701Z,97631.14
2022-10-28T09:43:17.320Z,97624.86
2022-10-28T09:45:47.344Z,97623.27
2022-10-28T09:48:37.519Z,97624.13
2022-10-28T09:51:06.116Z,97622.20
2022-10-28T09:53:56.408Z,97621.80
2022-10-28T09:56:26.390Z,97619.92
2022-10-28T09:58:58.375Z,97624.84
2022-10-28T10:01:33.386Z,97620.45
2022-10-28T10:04:02.753Z,97618.25
2022-10-28T10:06:37.785Z,97617.30
2022-10-28T10:09:06.120Z,97615.90
2022-10-28T10:11:49.477Z,97611.23
2022-10-28T10:14:22.399Z,97609.19
2022-10-28T10:17:12.982Z,97610.05
2022-10-28T10:20:00.361Z,97608.83
2022-10-28T10:22:39.946Z,97605.91
2022-10-28T10:25:20.586Z,97603.74
2022-10-28T10:27:57.843Z,97605.29
2022-10-28T10:30:30.755Z,97604.23
2022-10-28T10:33:00.025Z,97599.63
2022-10-28T10:35:34.303Z,97597.45
2022-10-28T10:38:07.028Z,97596.74
2022-10-28T10:40:40.718Z,97595.57
2022-10-28T10:43:18.316Z,97595.60
2022-10-28T10:46:16.015Z,97589.85
2022-10-28T10:48:44.689Z,97589.97
2022-10-28T10:51:22.528Z,97587.73
2022-10-28T10:53:54.987Z,97583.20
2022-10-28T10:56:30.091Z,97582.36
2022-10-28T10:59:03.175Z,97581.27
2022-10-28T11:01:39.483Z,97579.18
2022-10-28T11:04:15.861Z,97574.88
2022-10-28T11:06:48.644Z,97576.95
2022-10-28T11:09:29.098Z,97574.45
2022-10-28T11:11:57.800Z,97570.27
2022-10-28T11:14:32.575Z,97570.29
2022-10-28T11:17:02.757Z,97566.34
2022-10-28T11:19:33.024Z,97560.54
2022-10-28T11:22:27.561Z,97557.52
2022-10-28T11:25:01.650Z,97557.47
2022-10-28T11:27:29.920Z,97558.21
2022-10-28T11:30:00.062Z,97562.05
2022-10-28T11:33:16.224Z,97562.61
2022-10-28T11:36:16.465Z,97564.30
2022-10-28T11:39:03.462Z,97562.52
2022-10-28T11:41:52.145Z,97560.91
2022-10-28T11:44:46.884Z,97560.98
2022-10-28T11:47:27.288Z,97555.65
2022-10-28T11:50:10.977Z,97558.23
2022-10-28T11:52:45.259Z,97551.98
2022-10-28T11:55:23.009Z,97546.23
2022-10-28T11:58:06.752Z,97543.70
2022-10-28T12:00:34.988Z,97538.82
2022-10-28T12:03:18.676Z,97539.61
2022-10-28T12:05:56.177Z,97535.03
2022-10-28T12:08:45.947Z,97531.54
2022-10-28T12:11:32.406Z,97531.40
2022-10-28T12:14:23.074Z,97525.34
2022-10-28T12:16:58.404Z,97525.41
2022-10-28T12:19:35.098Z,97525.63
2022-10-28T12:22:32.912Z,97523.60
2022-10-28T12:25:08.715Z,97519.88
2022-10-28T12:27:42.789Z,97516.88
2022-10-28T12:30:21.469Z,97513.84
2022-10-28T12:33:06.858Z,97511.39
2022-10-28T12:35:40.592Z,97508.70
2022-10-28T12:38:11.729Z,97506.94
2022-10-28T12:41:00.193Z,97505.09
2022-10-28T12:43:38.596Z,97505.70
2022-10-28T12:46:18.939Z,97502.39
2022-10-28T12:48:50.098Z,97505.80
2022-10-28T12:51:21.669Z,97501.95
2022-10-28T12:54:00.748Z,97497.27
2022-10-28T12:56:38.120Z,97497.75
2022-10-28T12:59:35.918Z,97494.77
2022-10-28T13:02:12.061Z,97496.55
2022-10-28T13:04:41.400Z,97498.45
2022-10-28T13:07:35.849Z,97496.98
2022-10-28T13:10:24.659Z,97496.35
2022-10-28T13:13:13.397Z,97493.92
2022-10-28T13:16:04.169Z,97495.48
2022-10-28T13:18:58.377Z,97494.47
2022-10-28T13:22:01.088Z,97494.27
2022-10-28T13:24:39.524Z,97495.36
2022-10-28T13:27:13.882Z,97496.65
2022-10-28T13:29:48.672Z,97498.00
2022-10-28T13:32:38.870Z,97497.29
2022-10-28T13:35:16.447Z,97498.57
2022-10-28T13:37:47.809Z,97500.54
2022-10-28T13:40:41.641Z,97497.23
2022-10-28T13:43:41.627Z,97493.79
2022-10-28T13:46:09.935Z,97489.45
2022-10-28T13:48:46.228Z,97489.38
2022-10-28T13:51:14.475Z,97488.88
2022-10-28T13:53:45.801Z,97491.19
2022-10-28T13:56:53.209Z,97490.54
2022-10-28T13:59:32.892Z,97490.10
2022-10-28T14:02:39.421Z,97490.51
2022-10-28T14:05:11.460Z,97487.16
2022-10-28T14:08:01.684Z,97487.19
2022-10-28T14:10:34.292Z,97480.27
2022-10-28T14:13:19.504Z,97486.34
2022-10-28T14:15:49.667Z,97485.41
2022-10-28T14:21:06.313Z,97485.95
2022-10-28T14:23:36.619Z,97486.29
2022-10-28T14:26:06.392Z,97488.77
2022-10-28T14:28:35.649Z,97486.83
2022-10-28T14:31:12.613Z,97483.52
2022-10-28T14:33:46.648Z,97490.42
2022-10-28T14:36:17.728Z,97489.08
2022-10-28T14:39:19.245Z,97494.98
2022-10-28T14:42:03.083Z,97494.63
2022-10-28T14:44:49.978Z,97492.73
2022-10-28T14:53:46.763Z,97503.52
2022-10-28T14:56:31.050Z,97498.48
2022-10-28T14:59:19.698Z,97499.36
2022-10-28T15:02:08.735Z,97499.89
2022-10-28T15:04:38.736Z,97497.97
2022-10-28T15:07:18.924Z,97491.73
2022-10-28T15:09:52.795Z,97493.36
2022-10-28T15:12:22.196Z,97489.84
2022-10-28T15:14:55.326Z,97491.77
2022-10-28T15:17:25.513Z,97489.05
2022-10-28T15:19:58.093Z,97491.61
2022-10-28T15:22:31.649Z,97490.52
2022-10-28T15:25:10.493Z,97493.09
2022-10-28T15:27:39.743Z,97493.81
2022-10-28T15:30:14.984Z,97492.84
